Wenonah, NJ (08090)

3:57 PM EDT on July 06, 2015 (GMT -0400)
Lakes At Bankbridge | | Change Station
CLOSE
Current Station
Personal Weather Station
Location: Wenonah, NJ
Elevation: 89 ft
Nearby Weather Stations

Elev 89 ft 39.79 °N, 75.14 °W | Updated 2 minutes ago

Mostly Cloudy
Mostly Cloudy
84.6 °F
Feels Like 90 °F
N
0.0
Wind Variable Wind from North
Gusts 8.0 mph

Today
High -- | Low -- °F
--% Chance of Precip.
Yesterday
High -- | Low -- °F
Precip. -- in
5:38 AM 8:31 PM
Waning Gibbous, 72% visible
Pressure 30.08 in
Visibility 10.0 miles
Clouds Few 2000 ft
Scattered Clouds 4500 ft
Scattered Clouds 12000 ft
Mostly Cloudy 26000 ft
Heat Index 90 °F
Dew Point 72 °F
Humidity 66%
Rainfall 0.00 in
Snow Depth Not available.
UV 4 out of 12
Pollen 2.70 out of 12
Air Quality Not available.
Flu Activity Not available.
METAR KPHL 061954Z 19007KT 10SM FEW020 SCT045 SCT120 BKN260 30/21 A3008 RMK AO2 SLP185 T03000211 $

More Conditions Fewer Conditions

Pressure 30.08 in
Visibility 10.0 miles
Clouds Few 2000 ft
Scattered Clouds 4500 ft
Scattered Clouds 12000 ft
Mostly Cloudy 26000 ft
Heat Index 90 °F
Dew Point 72 °F
Humidity 66%
Rainfall 0.00 in
Snow Depth Not available.
UV 4 out of 12
Pollen 2.70 out of 12
Air Quality Not available.
Flu Activity Not available.
METAR KPHL 061954Z 19007KT 10SM FEW020 SCT045 SCT120 BKN260 30/21 A3008 RMK AO2 SLP185 T03000211 $

More Conditions Fewer Conditions

Nowcast | as of 3:46 PM EDT on July 6, 2015

Isolated to scattered showers will continue to develop and spread across the area through the late afternoon hours. A few areas may see a brief moderate to heavy downpour. A few rumbles of thunder area also possible.

×

10-Day Weather Forecast

×

Almanac

Astronomy

Jul. 06, 2015 Rise Set
Actual Time
Civil Twilight
Nautical Twilight
Astronomical Twilight
Moon
Length of Visible Light
Length of Day
Tomorrow will be .
, % of the Moon is Illuminated

Today's Extremes

State Highs State Lows

Community

WunderPhotos

Upload Photos

1,835,625 photos uploaded!

WunderBlogs® & News

Nearby

Air Quality

  Air Quality AQ Index Pollutant
Not available.

Snow Depth

Station Depth Elevation

Earthquake Activity

City Distance Mag. Time & Date
Minimum magnitude displayed is 2.5.

Coastal Water Temperatures

Place Temperature

Stations

Nearby Weather Stations

Station Location Temp. Windchill Dew Point Humidity Wind Precip. Elev Updated Type